createdAt,value
2019-06-20T00:01:54.871Z,25.50
2019-06-20T00:04:22.868Z,25.50
2019-06-20T00:06:50.769Z,25.50
2019-06-20T00:09:18.775Z,25.50
2019-06-20T00:11:46.672Z,25.50
2019-06-20T00:14:14.595Z,25.50
2019-06-20T00:16:42.497Z,25.50
2019-06-20T00:19:10.488Z,25.50
2019-06-20T00:21:38.407Z,25.50
2019-06-20T00:24:06.446Z,25.50
2019-06-20T00:26:34.482Z,25.50
2019-06-20T00:29:02.451Z,25.50
2019-06-20T00:31:30.383Z,25.50
2019-06-20T00:33:58.322Z,25.10
2019-06-20T00:36:26.262Z,24.80
2019-06-20T00:38:54.302Z,24.50
2019-06-20T00:41:22.193Z,24.40
2019-06-20T00:43:50.084Z,24.40
2019-06-20T00:46:18.151Z,24.20
2019-06-20T00:48:46.128Z,23.90
2019-06-20T00:51:14.019Z,23.80
2019-06-20T00:53:41.973Z,23.70
2019-06-20T00:56:09.848Z,23.50
2019-06-20T00:58:37.927Z,23.50
2019-06-20T01:01:06.099Z,23.40
2019-06-20T01:03:33.986Z,23.40
2019-06-20T01:06:02.045Z,23.50
2019-06-20T01:08:29.947Z,23.40
2019-06-20T01:10:57.983Z,23.40
2019-06-20T01:13:33.772Z,23.40
2019-06-20T01:15:55.487Z,23.40
2019-06-20T01:18:23.406Z,23.60
2019-06-20T01:20:51.383Z,23.70
2019-06-20T01:23:19.382Z,23.90
2019-06-20T01:25:47.359Z,24.00
2019-06-20T01:28:15.281Z,24.00
2019-06-20T01:30:43.275Z,24.10
2019-06-20T01:33:11.203Z,24.20
2019-06-20T01:35:39.127Z,24.20
2019-06-20T01:38:07.101Z,24.10
2019-06-20T01:40:35.236Z,24.10
2019-06-20T01:43:03.172Z,24.10
2019-06-20T01:45:31.224Z,24.10
2019-06-20T01:47:59.144Z,23.90
2019-06-20T01:50:27.223Z,23.90
2019-06-20T01:52:55.147Z,23.80
2019-06-20T01:55:23.238Z,23.80
2019-06-20T01:57:51.222Z,23.70
2019-06-20T02:00:38.533Z,23.70
2019-06-20T02:03:06.556Z,23.60
2019-06-20T02:05:34.615Z,23.50
2019-06-20T02:08:02.666Z,23.40
2019-06-20T02:10:30.620Z,23.40
2019-06-20T02:12:58.513Z,23.30
2019-06-20T02:15:26.504Z,23.20
2019-06-20T02:17:54.407Z,23.20
2019-06-20T02:20:28.224Z,23.10
2019-06-20T02:22:56.145Z,23.00
2019-06-20T02:25:24.108Z,23.00
2019-06-20T02:27:52.161Z,22.90
2019-06-20T02:30:20.155Z,22.90
2019-06-20T02:32:48.124Z,22.90
2019-06-20T02:35:16.202Z,22.80
2019-06-20T02:37:44.171Z,22.70
2019-06-20T02:40:12.356Z,22.60
2019-06-20T02:42:40.461Z,22.60
2019-06-20T02:45:08.511Z,22.60
2019-06-20T02:47:36.438Z,22.50
2019-06-20T02:50:04.876Z,22.50
2019-06-20T02:52:32.958Z,22.50
2019-06-20T02:55:00.852Z,22.50
2019-06-20T02:57:28.795Z,22.50
2019-06-20T02:59:56.668Z,22.30
2019-06-20T03:02:24.566Z,22.30
2019-06-20T03:04:52.542Z,22.40
2019-06-20T03:07:20.472Z,22.30
2019-06-20T03:09:48.369Z,22.30
2019-06-20T03:12:16.246Z,22.20
2019-06-20T03:14:45.652Z,22.20
2019-06-20T03:17:13.822Z,22.20
2019-06-20T03:19:41.750Z,22.10
2019-06-20T03:22:09.640Z,22.10
2019-06-20T03:24:37.528Z,22.00
2019-06-20T03:27:05.491Z,22.00
2019-06-20T03:29:33.466Z,21.80
2019-06-20T03:32:01.424Z,21.80
2019-06-20T03:34:29.426Z,21.90
2019-06-20T03:36:57.387Z,21.90
2019-06-20T03:39:25.335Z,21.90
2019-06-20T03:41:53.452Z,21.80
2019-06-20T03:44:21.387Z,21.80
2019-06-20T03:46:49.280Z,21.90
2019-06-20T03:49:17.158Z,21.90
2019-06-20T03:51:45.064Z,21.90
2019-06-20T03:54:12.988Z,21.80
2019-06-20T03:56:40.882Z,21.80
2019-06-20T03:59:08.750Z,21.80
2019-06-20T04:01:36.661Z,21.70
2019-06-20T04:04:04.707Z,21.70
2019-06-20T04:06:32.729Z,21.80
2019-06-20T04:09:00.615Z,21.80
2019-06-20T04:11:28.616Z,21.80
2019-06-20T04:13:56.481Z,21.80
2019-06-20T04:16:24.395Z,21.90
2019-06-20T04:18:52.347Z,22.00
2019-06-20T04:21:20.367Z,22.10
2019-06-20T04:23:48.287Z,22.20
2019-06-20T04:26:16.236Z,22.40
2019-06-20T04:28:44.192Z,22.30
2019-06-20T04:31:12.079Z,22.20
2019-06-20T04:33:40.001Z,22.20
2019-06-20T04:36:08.026Z,22.30
2019-06-20T04:38:36.229Z,22.50
2019-06-20T04:41:04.180Z,22.60
2019-06-20T04:43:32.089Z,22.50
2019-06-20T04:46:17.441Z,22.60
2019-06-20T04:48:45.411Z,22.60
2019-06-20T04:51:13.389Z,22.60
2019-06-20T04:53:41.421Z,22.50
2019-06-20T04:56:09.392Z,22.50
2019-06-20T04:58:37.321Z,22.60
2019-06-20T05:01:05.348Z,22.70
2019-06-20T05:03:33.310Z,22.80
2019-06-20T05:06:01.308Z,23.00
2019-06-20T05:08:29.349Z,23.00
2019-06-20T05:10:57.490Z,23.20
2019-06-20T05:13:25.376Z,23.70
2019-06-20T05:15:53.612Z,24.20
2019-06-20T05:18:21.727Z,24.60
2019-06-20T05:20:49.747Z,24.80
2019-06-20T05:23:17.640Z,24.70
2019-06-20T05:25:45.603Z,24.40
2019-06-20T05:28:13.619Z,24.30
2019-06-20T05:30:41.554Z,24.10
2019-06-20T05:33:09.583Z,23.60
2019-06-20T05:35:37.575Z,23.50
2019-06-20T05:38:05.564Z,23.40
2019-06-20T05:40:37.031Z,23.60
2019-06-20T05:43:03.321Z,23.70
2019-06-20T05:45:31.583Z,23.80
2019-06-20T05:47:59.604Z,23.90
2019-06-20T05:50:27.482Z,24.10
2019-06-20T05:52:55.461Z,24.30
2019-06-20T05:55:23.416Z,24.40
2019-06-20T05:57:51.367Z,24.50
2019-06-20T06:00:19.518Z,24.70
2019-06-20T06:02:47.559Z,24.70
2019-06-20T06:05:15.508Z,24.50
2019-06-20T06:07:43.477Z,24.30
2019-06-20T06:10:12.039Z,24.20
2019-06-20T06:12:40.002Z,24.30
2019-06-20T06:15:09.622Z,24.30
2019-06-20T06:17:37.591Z,24.20
2019-06-20T06:20:05.625Z,24.10
2019-06-20T06:22:33.620Z,24.00
2019-06-20T06:25:01.598Z,23.60
2019-06-20T06:27:29.784Z,23.50
2019-06-20T06:29:57.723Z,23.50
2019-06-20T06:32:39.176Z,23.40
2019-06-20T06:34:55.782Z,23.00
2019-06-20T06:37:23.775Z,22.30
2019-06-20T06:39:51.670Z,21.60
2019-06-20T06:42:19.907Z,20.70
2019-06-20T06:44:47.899Z,19.60
2019-06-20T06:47:16.006Z,19.50
2019-06-20T06:49:44.050Z,19.30
2019-06-20T06:52:11.998Z,19.30
2019-06-20T06:54:40.002Z,19.30
2019-06-20T06:57:08.030Z,19.20
2019-06-20T06:59:35.935Z,19.20
2019-06-20T07:02:04.164Z,19.30
2019-06-20T07:04:32.092Z,19.50
2019-06-20T07:06:59.979Z,19.70
2019-06-20T07:09:27.935Z,19.80
2019-06-20T07:11:55.855Z,19.90
2019-06-20T07:14:23.864Z,19.90
2019-06-20T07:17:00.272Z,20.10
2019-06-20T07:19:21.468Z,20.30
2019-06-20T07:21:49.474Z,20.40
2019-06-20T07:24:17.433Z,20.40
2019-06-20T07:26:45.364Z,20.70
2019-06-20T07:29:13.320Z,20.80
2019-06-20T07:31:41.305Z,20.80
2019-06-20T07:34:09.253Z,20.90
2019-06-20T07:36:37.161Z,21.00
2019-06-20T07:39:06.740Z,21.00
2019-06-20T07:41:34.715Z,21.20
2019-06-20T07:44:02.891Z,21.30
2019-06-20T07:46:30.904Z,21.00
2019-06-20T07:48:58.802Z,21.10
2019-06-20T07:51:26.738Z,21.20
2019-06-20T07:53:54.651Z,21.10
2019-06-20T07:56:22.527Z,21.20
2019-06-20T07:58:50.500Z,21.30
2019-06-20T08:01:18.476Z,21.20
2019-06-20T08:03:46.379Z,21.20
2019-06-20T08:06:14.326Z,21.10
2019-06-20T08:08:42.475Z,21.00
2019-06-20T08:11:10.479Z,21.10
2019-06-20T08:13:38.368Z,21.00
2019-06-20T08:16:06.652Z,21.10
2019-06-20T08:18:34.601Z,21.30
2019-06-20T08:21:02.525Z,21.50
2019-06-20T08:23:30.520Z,21.60
2019-06-20T08:25:59.258Z,21.70
2019-06-20T08:28:28.119Z,21.80
2019-06-20T08:30:57.249Z,22.10
2019-06-20T08:33:25.842Z,22.30
2019-06-20T08:35:53.798Z,22.40
2019-06-20T08:38:21.784Z,22.60
2019-06-20T08:40:49.700Z,22.70
2019-06-20T08:43:17.669Z,22.70
2019-06-20T08:45:46.142Z,22.70
2019-06-20T08:48:14.284Z,22.90
2019-06-20T08:50:42.502Z,23.10
2019-06-20T08:53:10.823Z,23.40
2019-06-20T08:55:38.799Z,23.40
2019-06-20T08:58:06.738Z,23.30
2019-06-20T09:00:35.537Z,23.50
2019-06-20T09:05:31.719Z,23.70
2019-06-20T09:10:47.330Z,23.80
2019-06-20T09:13:15.249Z,23.30
2019-06-20T09:15:43.308Z,23.20
2019-06-20T09:18:11.996Z,23.30
2019-06-20T09:20:40.533Z,23.50
2019-06-20T09:23:08.649Z,23.30
2019-06-20T09:25:37.095Z,23.20
2019-06-20T09:28:05.691Z,23.30
2019-06-20T09:30:34.409Z,23.30
2019-06-20T09:33:02.424Z,23.10
2019-06-20T09:35:30.484Z,23.40
2019-06-20T09:37:59.375Z,23.50
2019-06-20T09:40:27.701Z,23.70
2019-06-20T09:42:56.460Z,23.70
2019-06-20T09:45:24.704Z,23.80
2019-06-20T09:47:53.711Z,23.90
2019-06-20T09:50:22.439Z,23.80
2019-06-20T09:52:51.553Z,24.00
2019-06-20T09:55:20.440Z,24.10
2019-06-20T09:57:49.192Z,24.00
2019-06-20T10:00:18.640Z,23.90
2019-06-20T10:02:48.545Z,24.30
2019-06-20T10:05:16.342Z,24.70
2019-06-20T10:07:44.266Z,24.60
2019-06-20T10:10:12.575Z,24.60
2019-06-20T10:12:40.621Z,24.60
2019-06-20T10:15:12.395Z,25.00
2019-06-20T10:17:40.307Z,25.30
2019-06-20T10:20:08.410Z,25.30
2019-06-20T10:22:36.630Z,25.10
2019-06-20T10:25:04.920Z,24.60
2019-06-20T10:27:32.902Z,24.80
2019-06-20T10:30:13.396Z,24.70
2019-06-20T10:32:30.536Z,25.30
2019-06-20T10:34:58.479Z,25.70
2019-06-20T10:37:26.372Z,26.10
2019-06-20T10:39:54.428Z,26.40
2019-06-20T10:42:22.370Z,26.90
2019-06-20T10:44:50.356Z,27.50
2019-06-20T10:47:31.620Z,27.90
2019-06-20T10:49:48.007Z,28.70
2019-06-20T10:52:16.878Z,29.20
2019-06-20T10:54:44.922Z,30.40
2019-06-20T10:57:13.170Z,29.80
2019-06-20T10:59:42.673Z,29.10
2019-06-20T11:02:10.843Z,29.10
2019-06-20T11:04:40.522Z,28.40
2019-06-20T11:07:08.577Z,27.60
2019-06-20T11:09:36.461Z,27.60
2019-06-20T11:12:04.580Z,27.50
2019-06-20T11:14:32.508Z,28.10
2019-06-20T11:17:00.427Z,29.10
2019-06-20T11:19:28.484Z,29.80
2019-06-20T11:21:56.430Z,31.40
2019-06-20T11:24:24.440Z,30.70
2019-06-20T11:26:52.446Z,31.20
2019-06-20T11:29:20.452Z,31.70
2019-06-20T11:31:49.619Z,30.70
2019-06-20T11:34:17.772Z,31.20
2019-06-20T11:36:46.758Z,32.30
2019-06-20T11:39:14.896Z,31.90
2019-06-20T11:41:43.670Z,33.30
2019-06-20T11:44:11.753Z,31.60
2019-06-20T11:46:40.659Z,33.10
2019-06-20T11:49:08.743Z,30.60
2019-06-20T11:51:37.567Z,31.50
2019-06-20T11:54:05.843Z,31.50
2019-06-20T11:56:33.750Z,32.80
2019-06-20T11:59:01.684Z,32.80
2019-06-20T12:01:32.791Z,32.70
2019-06-20T12:03:59.358Z,32.10
2019-06-20T12:06:27.748Z,31.70
2019-06-20T12:08:55.682Z,30.50
2019-06-20T12:11:23.588Z,30.70
2019-06-20T12:13:51.564Z,31.10
2019-06-20T12:16:19.436Z,30.90
2019-06-20T12:18:47.364Z,29.50
2019-06-20T12:21:15.406Z,29.20
2019-06-20T12:23:44.905Z,27.60
2019-06-20T12:26:13.177Z,28.00
2019-06-20T12:28:42.243Z,28.20
2019-06-20T12:31:19.455Z,28.40
2019-06-20T12:33:40.965Z,28.50
2019-06-20T12:36:09.957Z,28.90
2019-06-20T12:38:38.119Z,29.10
2019-06-20T12:41:07.525Z,29.20
2019-06-20T12:43:35.461Z,28.70
2019-06-20T12:46:03.397Z,28.30
2019-06-20T12:48:31.360Z,28.60
2019-06-20T12:50:59.298Z,28.60
2019-06-20T12:53:27.405Z,28.50
2019-06-20T12:55:55.365Z,28.40
2019-06-20T12:58:23.346Z,27.70
2019-06-20T13:00:51.301Z,28.30
2019-06-20T13:03:19.199Z,28.00
2019-06-20T13:05:47.167Z,27.70
2019-06-20T13:08:15.281Z,28.10
2019-06-20T13:10:44.184Z,27.90
2019-06-20T13:13:12.270Z,28.10
2019-06-20T13:15:40.665Z,28.50
2019-06-20T13:18:08.857Z,28.40
2019-06-20T13:20:38.804Z,28.20
2019-06-20T13:23:06.743Z,28.30
2019-06-20T13:25:34.699Z,28.40
2019-06-20T13:28:02.722Z,28.20
2019-06-20T13:30:30.680Z,27.90
2019-06-20T13:32:58.573Z,28.00
2019-06-20T13:35:26.495Z,28.00
2019-06-20T13:37:54.574Z,27.70
2019-06-20T13:40:23.369Z,27.20
2019-06-20T13:42:54.481Z,27.10
2019-06-20T13:45:22.587Z,27.20
2019-06-20T13:47:50.788Z,27.20
2019-06-20T13:50:19.588Z,26.70
2019-06-20T13:52:49.711Z,26.60
2019-06-20T13:55:17.248Z,26.70
2019-06-20T13:57:46.933Z,26.70
2019-06-20T14:00:15.493Z,26.40
2019-06-20T14:02:45.383Z,26.10
2019-06-20T14:05:13.407Z,25.70
2019-06-20T14:07:47.065Z,25.80
2019-06-20T14:10:11.147Z,25.80
2019-06-20T14:12:40.067Z,25.80
2019-06-20T14:15:08.864Z,25.70
2019-06-20T14:17:36.967Z,25.70
2019-06-20T14:20:08.219Z,25.40
2019-06-20T14:22:34.777Z,25.10
2019-06-20T14:25:02.804Z,25.10
2019-06-20T14:27:30.793Z,25.30
2019-06-20T14:29:58.881Z,25.40
2019-06-20T14:32:26.911Z,25.40
2019-06-20T14:34:54.891Z,25.30
2019-06-20T14:37:22.901Z,25.10
2019-06-20T14:39:51.068Z,25.10
2019-06-20T14:42:19.498Z,24.90
2019-06-20T14:44:47.658Z,25.00
2019-06-20T14:47:15.905Z,25.00
2019-06-20T14:49:44.031Z,25.00
2019-06-20T14:52:11.943Z,24.80
2019-06-20T14:54:39.845Z,24.90
2019-06-20T14:57:07.812Z,24.90
2019-06-20T14:59:35.758Z,25.00
2019-06-20T15:02:03.772Z,25.00
2019-06-20T15:04:31.675Z,25.00
2019-06-20T15:06:59.663Z,25.10
2019-06-20T15:09:27.597Z,25.30
2019-06-20T15:11:55.463Z,25.60
2019-06-20T15:14:23.381Z,25.80
2019-06-20T15:16:51.355Z,26.20
2019-06-20T15:19:19.440Z,26.50
2019-06-20T15:21:48.518Z,26.40
2019-06-20T15:24:17.060Z,26.60
2019-06-20T15:26:45.875Z,26.80
2019-06-20T15:29:14.764Z,27.00
2019-06-20T15:31:43.813Z,27.10
2019-06-20T15:34:12.089Z,26.90
2019-06-20T15:36:40.149Z,27.00
2019-06-20T15:39:08.174Z,27.20
2019-06-20T15:41:55.839Z,27.00
2019-06-20T15:44:24.005Z,26.70
2019-06-20T15:46:52.023Z,26.10
2019-06-20T15:49:20.011Z,26.60
2019-06-20T15:51:47.954Z,26.40
2019-06-20T15:54:15.884Z,26.50
2019-06-20T15:56:43.909Z,26.50
2019-06-20T15:59:11.863Z,26.40
2019-06-20T16:01:39.864Z,26.50
2019-06-20T16:04:07.899Z,26.50
2019-06-20T16:06:35.851Z,26.60
2019-06-20T16:09:08.411Z,26.80
2019-06-20T16:11:34.788Z,27.00
2019-06-20T16:14:04.551Z,27.20
2019-06-20T16:16:32.525Z,27.30
2019-06-20T16:19:00.615Z,27.40
2019-06-20T16:21:28.647Z,27.50
2019-06-20T16:23:56.634Z,27.40
2019-06-20T16:26:24.541Z,27.40
2019-06-20T16:28:52.609Z,27.20
2019-06-20T16:31:26.660Z,27.20
2019-06-20T16:33:50.255Z,26.70
2019-06-20T16:36:18.283Z,27.00
2019-06-20T16:38:46.235Z,27.10
2019-06-20T16:41:14.230Z,27.00
2019-06-20T16:43:42.128Z,27.00
2019-06-20T16:46:10.189Z,26.60
2019-06-20T16:48:38.249Z,26.70
2019-06-20T16:51:06.260Z,26.90
2019-06-20T16:53:34.253Z,26.90
2019-06-20T16:56:02.384Z,26.80
2019-06-20T16:58:30.416Z,26.80
2019-06-20T17:00:58.421Z,26.80
2019-06-20T17:03:40.804Z,27.00
2019-06-20T17:05:56.104Z,27.10
2019-06-20T17:08:24.373Z,27.20
2019-06-20T17:10:52.351Z,27.10
2019-06-20T17:13:20.594Z,27.00
2019-06-20T17:15:48.622Z,26.90
2019-06-20T17:18:16.580Z,26.80
2019-06-20T17:20:44.642Z,26.80
2019-06-20T17:23:12.611Z,26.60
2019-06-20T17:25:40.687Z,26.60
2019-06-20T17:28:08.675Z,26.60
2019-06-20T17:30:36.676Z,26.50
2019-06-20T17:33:04.711Z,26.60
2019-06-20T17:35:32.730Z,26.50
2019-06-20T17:38:00.804Z,26.50
2019-06-20T17:40:28.920Z,26.50
2019-06-20T17:42:56.937Z,26.50
2019-06-20T17:45:25.247Z,26.50
2019-06-20T17:47:53.324Z,26.50
2019-06-20T17:50:25.685Z,26.50
2019-06-20T17:52:52.384Z,26.50
2019-06-20T17:55:20.523Z,26.50
2019-06-20T17:57:48.511Z,26.50
2019-06-20T18:00:16.945Z,26.50
2019-06-20T18:02:44.962Z,26.60
2019-06-20T18:05:13.213Z,26.50
2019-06-20T18:07:41.296Z,26.50
2019-06-20T18:10:09.685Z,26.50
2019-06-20T18:12:37.681Z,26.50
2019-06-20T18:15:06.047Z,26.50
2019-06-20T18:17:34.079Z,26.50
2019-06-20T18:20:02.429Z,26.50
2019-06-20T18:22:30.505Z,26.50
2019-06-20T18:24:58.499Z,26.50
2019-06-20T18:27:26.561Z,26.50
2019-06-20T18:29:54.483Z,26.50
2019-06-20T18:32:22.496Z,26.50
2019-06-20T18:35:01.471Z,26.40
2019-06-20T18:37:31.057Z,26.30
2019-06-20T18:39:49.842Z,26.20
2019-06-20T18:42:17.741Z,26.30
2019-06-20T18:44:45.689Z,26.20
2019-06-20T18:47:13.649Z,26.10
2019-06-20T18:49:41.649Z,26.20
2019-06-20T18:52:09.735Z,26.10
2019-06-20T18:54:37.763Z,26.00
2019-06-20T18:57:06.030Z,25.90
2019-06-20T18:59:33.988Z,25.80
2019-06-20T19:02:02.019Z,25.70
2019-06-20T19:04:42.277Z,25.70
2019-06-20T19:06:59.609Z,25.60
2019-06-20T19:09:27.682Z,25.60
2019-06-20T19:11:55.632Z,25.50
2019-06-20T19:14:23.679Z,25.40
2019-06-20T19:16:51.624Z,25.30
2019-06-20T19:19:20.906Z,25.30
2019-06-20T19:21:49.089Z,25.30
2019-06-20T19:24:17.033Z,25.20
2019-06-20T19:26:44.963Z,25.30
2019-06-20T19:29:12.898Z,25.10
2019-06-20T19:31:41.060Z,25.10
2019-06-20T19:34:09.064Z,25.00
2019-06-20T19:36:37.103Z,25.10
2019-06-20T19:39:06.298Z,25.10
2019-06-20T19:41:34.253Z,24.90
2019-06-20T19:44:02.292Z,24.90
2019-06-20T19:46:30.336Z,25.00
2019-06-20T19:48:58.457Z,25.00
2019-06-20T19:51:26.395Z,25.10
2019-06-20T19:53:54.417Z,25.10
2019-06-20T19:56:22.421Z,25.10
2019-06-20T19:58:50.503Z,25.00
2019-06-20T20:01:18.496Z,25.10
2019-06-20T20:03:46.543Z,25.00
2019-06-20T20:06:14.617Z,25.00
2019-06-20T20:08:42.595Z,25.00
2019-06-20T20:11:10.538Z,24.90
2019-06-20T20:13:38.499Z,24.90
2019-06-20T20:16:06.529Z,24.90
2019-06-20T20:18:34.527Z,24.80
2019-06-20T20:21:02.634Z,24.80
2019-06-20T20:23:30.567Z,24.80
2019-06-20T20:25:58.603Z,24.80
2019-06-20T20:28:26.529Z,24.80
2019-06-20T20:30:54.423Z,24.80
2019-06-20T20:33:22.354Z,24.70
2019-06-20T20:35:50.362Z,24.80
2019-06-20T20:38:18.280Z,24.80
2019-06-20T20:40:46.220Z,24.80
2019-06-20T20:43:14.242Z,24.80
2019-06-20T20:45:42.316Z,24.80
2019-06-20T20:48:10.778Z,24.90
2019-06-20T20:50:38.927Z,24.80
2019-06-20T20:53:07.034Z,24.70
2019-06-20T20:55:35.168Z,24.70
2019-06-20T20:58:03.154Z,24.80
2019-06-20T21:00:35.136Z,24.80
2019-06-20T21:03:03.181Z,24.80
2019-06-20T21:05:33.596Z,24.80
2019-06-20T21:08:01.751Z,24.80
2019-06-20T21:10:29.832Z,24.70
2019-06-20T21:12:57.894Z,24.60
2019-06-20T21:15:26.013Z,24.50
2019-06-20T21:17:55.815Z,24.50
2019-06-20T21:20:23.949Z,24.40
2019-06-20T21:22:51.861Z,24.30
2019-06-20T21:25:19.902Z,24.30
2019-06-20T21:27:50.315Z,24.20
2019-06-20T21:30:18.598Z,24.10
2019-06-20T21:32:46.602Z,24.10
2019-06-20T21:35:15.499Z,24.10
2019-06-20T21:37:43.463Z,24.00
2019-06-20T21:40:11.820Z,24.00
2019-06-20T21:42:39.785Z,24.00
2019-06-20T21:45:12.106Z,24.00
2019-06-20T21:47:40.709Z,23.90
2019-06-20T21:50:08.787Z,23.90
2019-06-20T21:52:37.481Z,23.90
2019-06-20T21:55:06.172Z,23.90
2019-06-20T21:57:34.224Z,23.90
2019-06-20T22:00:02.274Z,23.80
2019-06-20T22:02:30.190Z,23.80
2019-06-20T22:04:58.073Z,23.50
2019-06-20T22:07:26.038Z,23.10
2019-06-20T22:09:53.940Z,22.80
2019-06-20T22:12:21.838Z,22.60
2019-06-20T22:14:49.879Z,22.40
2019-06-20T22:17:17.880Z,22.00
2019-06-20T22:19:45.949Z,21.50
2019-06-20T22:22:13.967Z,23.90
2019-06-20T22:25:01.129Z,25.50
2019-06-20T22:27:29.157Z,25.10
2019-06-20T22:29:57.135Z,24.60
2019-06-20T22:32:25.082Z,24.10
2019-06-20T22:34:53.043Z,26.30
2019-06-20T22:37:20.959Z,32.50
2019-06-20T22:39:48.946Z,34.90
2019-06-20T22:42:16.925Z,35.70
2019-06-20T22:44:45.094Z,36.40
2019-06-20T22:47:13.203Z,36.40
2019-06-20T22:49:43.495Z,36.60
2019-06-20T22:52:11.577Z,38.20
2019-06-20T22:54:39.535Z,38.70
2019-06-20T22:57:07.483Z,38.50
2019-06-20T22:59:35.361Z,38.10
2019-06-20T23:02:03.263Z,38.50
2019-06-20T23:04:31.238Z,39.20
2019-06-20T23:06:59.157Z,40.30
2019-06-20T23:09:27.520Z,40.70
2019-06-20T23:11:55.714Z,41.20
2019-06-20T23:14:23.620Z,41.30
2019-06-20T23:16:51.523Z,41.50
2019-06-20T23:19:19.453Z,41.90
2019-06-20T23:21:47.439Z,43.20
2019-06-20T23:24:15.473Z,43.60
2019-06-20T23:26:43.574Z,41.60
2019-06-20T23:29:23.713Z,41.40
2019-06-20T23:31:53.138Z,40.50
2019-06-20T23:34:21.042Z,40.70
2019-06-20T23:36:49.443Z,40.90
2019-06-20T23:39:17.666Z,41.00
2019-06-20T23:41:46.106Z,40.10
2019-06-20T23:44:14.113Z,40.10
2019-06-20T23:46:42.184Z,39.10
2019-06-20T23:49:10.181Z,38.90
2019-06-20T23:51:42.432Z,39.40
2019-06-20T23:54:10.412Z,35.60
2019-06-20T23:56:38.434Z,34.50
2019-06-20T23:59:06.476Z,34.80
